createdAt,value
2023-08-17T00:00:34.379Z,99647.00
2023-08-17T00:02:06.807Z,99641.00
2023-08-17T00:03:40.138Z,99648.00
2023-08-17T00:05:12.951Z,99647.00
2023-08-17T00:06:47.935Z,99661.00
2023-08-17T00:08:20.250Z,99666.00
2023-08-17T00:09:55.002Z,99664.00
2023-08-17T00:11:27.256Z,99669.00
2023-08-17T00:13:01.325Z,99671.00
2023-08-17T00:14:33.663Z,99676.00
2023-08-17T00:16:06.963Z,99673.00
2023-08-17T00:17:39.449Z,99667.00
2023-08-17T00:19:12.778Z,99671.00
2023-08-17T00:20:45.400Z,99669.00
2023-08-17T00:22:18.715Z,99663.00
2023-08-17T00:23:52.105Z,99666.00
2023-08-17T00:25:25.707Z,99672.00
2023-08-17T00:26:58.883Z,99676.00
2023-08-17T00:28:31.218Z,99663.00
2023-08-17T00:30:05.030Z,99667.00
2023-08-17T00:31:38.565Z,99670.00
2023-08-17T00:33:11.885Z,99668.00
2023-08-17T00:34:45.136Z,99668.00
2023-08-17T00:36:17.468Z,99662.00
2023-08-17T00:37:50.690Z,99667.00
2023-08-17T00:39:22.996Z,99668.00
2023-08-17T00:40:57.674Z,99669.00
2023-08-17T00:42:29.914Z,99668.00
2023-08-17T00:44:03.453Z,99666.00
2023-08-17T00:45:37.129Z,99661.00
2023-08-17T00:47:10.606Z,99669.00
2023-08-17T00:48:44.073Z,99669.00
2023-08-17T00:50:18.116Z,99672.00
2023-08-17T00:51:50.431Z,99665.00
2023-08-17T00:53:25.519Z,99673.00
2023-08-17T00:54:59.030Z,99679.00
2023-08-17T00:56:33.867Z,99672.00
2023-08-17T00:58:06.128Z,99675.00
2023-08-17T00:59:41.804Z,99677.00
2023-08-17T01:01:18.353Z,99676.00
2023-08-17T01:02:53.313Z,99680.00
2023-08-17T01:04:26.700Z,99685.00
2023-08-17T01:05:59.570Z,99686.00
2023-08-17T01:07:32.901Z,99681.00
2023-08-17T01:09:08.024Z,99682.00
2023-08-17T01:10:53.691Z,99681.00
2023-08-17T01:12:33.690Z,99673.00
2023-08-17T01:14:13.691Z,99679.00
2023-08-17T01:15:52.995Z,99670.00
2023-08-17T01:17:32.809Z,99668.00
2023-08-17T01:19:10.950Z,99660.00
2023-08-17T01:20:44.232Z,99669.00
2023-08-17T01:22:23.080Z,99665.00
2023-08-17T01:24:00.104Z,99675.00
2023-08-17T01:25:37.454Z,99676.00
2023-08-17T01:27:09.743Z,99671.00
2023-08-17T01:28:44.577Z,99678.00
2023-08-17T01:30:19.082Z,99672.00
2023-08-17T01:32:14.912Z,99666.00
2023-08-17T01:33:55.484Z,99663.00
2023-08-17T01:35:36.171Z,99663.00
2023-08-17T01:37:12.491Z,99654.00
2023-08-17T01:38:46.752Z,99654.00
2023-08-17T01:40:22.681Z,99654.00
2023-08-17T01:42:00.651Z,99647.00
2023-08-17T01:43:33.304Z,99648.00
2023-08-17T01:45:08.216Z,99647.00
2023-08-17T01:46:43.024Z,99635.00
2023-08-17T01:48:16.384Z,99634.00
2023-08-17T01:49:48.675Z,99624.00
2023-08-17T01:51:22.174Z,99626.00
2023-08-17T01:52:54.579Z,99624.00
2023-08-17T01:54:27.929Z,99623.00
2023-08-17T01:56:04.437Z,99620.00
2023-08-17T01:57:37.774Z,99614.00
2023-08-17T01:59:10.968Z,99615.00
2023-08-17T02:00:45.004Z,99614.00
2023-08-17T02:02:18.282Z,99603.00
2023-08-17T02:03:51.575Z,99612.00
2023-08-17T02:05:23.849Z,99606.00
2023-08-17T02:06:57.058Z,99601.00
2023-08-17T02:08:29.387Z,99599.00
2023-08-17T02:10:02.811Z,99598.00
2023-08-17T02:11:36.516Z,99597.00
2023-08-17T02:13:17.911Z,99593.00
2023-08-17T02:14:50.861Z,99590.00
2023-08-17T02:16:24.257Z,99585.00
2023-08-17T02:17:58.569Z,99583.00
2023-08-17T02:19:31.807Z,99580.00
2023-08-17T02:21:05.198Z,99573.00
2023-08-17T02:22:37.799Z,99579.00
2023-08-17T02:24:10.982Z,99582.00
2023-08-17T02:25:43.277Z,99579.00
2023-08-17T02:27:17.892Z,99587.00
2023-08-17T02:28:50.978Z,99586.00
2023-08-17T02:30:23.238Z,99591.00
2023-08-17T02:31:57.400Z,99599.00
2023-08-17T02:33:31.821Z,99583.00
2023-08-17T02:35:05.482Z,99592.00
2023-08-17T02:36:37.730Z,99589.00
2023-08-17T02:38:10.973Z,99589.00
2023-08-17T02:40:25.459Z,99589.00
2023-08-17T02:41:57.718Z,99588.00
2023-08-17T02:43:32.289Z,99590.00
2023-08-17T02:45:05.588Z,99580.00
2023-08-17T02:46:38.894Z,99577.00
2023-08-17T02:48:11.331Z,99584.00
2023-08-17T02:49:45.296Z,99584.00
2023-08-17T02:51:17.646Z,99579.00
2023-08-17T02:52:50.906Z,99578.00
2023-08-17T02:54:23.384Z,99580.00
2023-08-17T02:55:56.619Z,99578.00
2023-08-17T02:57:28.981Z,99574.00
2023-08-17T02:59:03.566Z,99579.00
2023-08-17T03:00:37.245Z,99579.00
2023-08-17T03:02:10.445Z,99580.00
2023-08-17T03:03:42.929Z,99583.00
2023-08-17T03:05:18.633Z,99587.00
2023-08-17T03:06:50.922Z,99590.00
2023-08-17T03:08:24.163Z,99575.00
2023-08-17T03:09:57.404Z,99584.00
2023-08-17T03:11:29.672Z,99579.00
2023-08-17T03:13:02.849Z,99588.00
2023-08-17T03:14:36.626Z,99586.00
2023-08-17T03:16:10.877Z,99585.00
2023-08-17T03:17:43.230Z,99584.00
2023-08-17T03:19:17.095Z,99580.00
2023-08-17T03:20:50.044Z,99593.00
2023-08-17T03:22:23.483Z,99596.00
2023-08-17T03:23:56.030Z,99595.00
2023-08-17T03:25:29.384Z,99601.00
2023-08-17T03:27:02.446Z,99604.00
2023-08-17T03:28:36.335Z,99595.00
2023-08-17T03:30:11.025Z,99600.00
2023-08-17T03:31:44.453Z,99590.00
2023-08-17T03:33:16.709Z,99605.00
2023-08-17T03:34:49.934Z,99594.00
2023-08-17T03:36:22.623Z,99598.00
2023-08-17T03:37:55.828Z,99600.00
2023-08-17T03:39:28.108Z,99595.00
2023-08-17T03:41:02.675Z,99602.00
2023-08-17T03:42:36.331Z,99601.00
2023-08-17T03:44:10.324Z,99597.00
2023-08-17T03:45:45.278Z,99592.00
2023-08-17T03:47:17.488Z,99586.00
2023-08-17T03:48:50.676Z,99596.00
2023-08-17T03:50:22.968Z,99592.00
2023-08-17T03:51:56.180Z,99603.00
2023-08-17T03:53:28.570Z,99596.00
2023-08-17T03:55:01.755Z,99598.00
2023-08-17T03:56:34.997Z,99584.00
2023-08-17T03:58:07.288Z,99591.00
2023-08-17T03:59:40.606Z,99586.00
2023-08-17T04:01:15.662Z,99586.00
2023-08-17T04:02:48.611Z,99583.00
2023-08-17T04:04:24.810Z,99588.00
2023-08-17T04:05:57.231Z,99589.00
2023-08-17T04:07:30.567Z,99588.00
2023-08-17T04:09:03.156Z,99594.00
2023-08-17T04:10:36.585Z,99586.00
2023-08-17T04:12:09.733Z,99590.00
2023-08-17T04:13:43.654Z,99585.00
2023-08-17T04:15:16.948Z,99588.00
2023-08-17T04:16:51.515Z,99585.00
2023-08-17T04:18:24.493Z,99596.00
2023-08-17T04:19:57.730Z,99585.00
2023-08-17T04:21:30.104Z,99588.00
2023-08-17T04:23:03.534Z,99594.00
2023-08-17T04:24:35.838Z,99596.00
2023-08-17T04:26:09.222Z,99596.00
2023-08-17T04:27:41.571Z,99597.00
2023-08-17T04:29:15.560Z,99594.00
2023-08-17T04:30:48.831Z,99590.00
2023-08-17T04:32:23.412Z,99587.00
2023-08-17T04:33:55.970Z,99590.00
2023-08-17T04:35:29.223Z,99594.00
2023-08-17T04:37:03.296Z,99592.00
2023-08-17T04:38:35.644Z,99591.00
2023-08-17T04:40:11.072Z,99602.00
2023-08-17T04:41:43.380Z,99597.00
2023-08-17T04:43:19.244Z,99593.00
2023-08-17T04:44:51.510Z,99601.00
2023-08-17T04:46:25.066Z,99603.00
2023-08-17T04:47:59.736Z,99595.00
2023-08-17T04:49:32.465Z,99605.00
2023-08-17T04:51:05.735Z,99602.00
2023-08-17T04:52:37.964Z,99605.00
2023-08-17T04:54:11.285Z,99611.00
2023-08-17T04:55:43.597Z,99612.00
2023-08-17T04:57:16.843Z,99606.00
2023-08-17T04:58:50.357Z,99605.00
2023-08-17T05:00:28.940Z,99614.00
2023-08-17T05:02:02.963Z,99606.00
2023-08-17T05:03:37.646Z,99614.00
2023-08-17T05:05:11.705Z,99617.00
2023-08-17T05:06:45.322Z,99610.00
2023-08-17T05:08:18.142Z,99617.00
2023-08-17T05:09:52.657Z,99622.00
2023-08-17T05:11:25.476Z,99621.00
2023-08-17T05:12:58.719Z,99624.00
2023-08-17T05:14:31.000Z,99627.00
2023-08-17T05:16:04.902Z,99624.00
2023-08-17T05:17:37.468Z,99625.00
2023-08-17T05:19:12.040Z,99631.00
2023-08-17T05:20:44.464Z,99628.00
2023-08-17T05:22:17.777Z,99635.00
2023-08-17T05:23:51.359Z,99632.00
2023-08-17T05:25:23.787Z,99629.00
2023-08-17T05:26:57.017Z,99626.00
2023-08-17T05:28:29.223Z,99630.00
2023-08-17T05:30:02.450Z,99628.00
2023-08-17T05:31:34.782Z,99630.00
2023-08-17T05:33:08.215Z,99623.00
2023-08-17T05:34:41.999Z,99618.00
2023-08-17T05:36:15.548Z,99627.00
2023-08-17T05:37:47.756Z,99626.00
2023-08-17T05:39:22.086Z,99621.00
2023-08-17T05:40:58.865Z,99616.00
2023-08-17T05:42:31.560Z,99633.00
2023-08-17T05:44:07.668Z,99622.00
2023-08-17T05:45:41.173Z,99633.00
2023-08-17T05:47:16.173Z,99632.00
2023-08-17T05:48:49.401Z,99631.00
2023-08-17T05:50:23.946Z,99626.00
2023-08-17T05:51:56.458Z,99627.00
2023-08-17T05:53:29.668Z,99638.00
2023-08-17T05:55:02.224Z,99638.00
2023-08-17T05:56:35.501Z,99634.00
2023-08-17T05:58:07.762Z,99635.00
2023-08-17T05:59:41.064Z,99640.00
2023-08-17T06:01:13.358Z,99636.00
2023-08-17T06:02:50.964Z,99637.00
2023-08-17T06:04:23.478Z,99640.00
2023-08-17T06:05:58.041Z,99642.00
2023-08-17T06:07:30.447Z,99642.00
2023-08-17T06:09:03.647Z,99637.00
2023-08-17T06:10:36.859Z,99633.00
2023-08-17T06:12:10.052Z,99631.00
2023-08-17T06:13:42.293Z,99630.00
2023-08-17T06:15:16.044Z,99624.00
2023-08-17T06:16:49.348Z,99635.00
2023-08-17T06:18:22.458Z,99632.00
2023-08-17T06:19:55.708Z,99633.00
2023-08-17T06:21:29.258Z,99634.00
2023-08-17T06:23:02.473Z,99624.00
2023-08-17T06:24:34.794Z,99626.00
2023-08-17T06:26:08.888Z,99628.00
2023-08-17T06:27:45.130Z,99625.00
2023-08-17T06:29:18.390Z,99625.00
2023-08-17T06:30:53.940Z,99626.00
2023-08-17T06:32:27.310Z,99625.00
2023-08-17T06:34:00.698Z,99630.00
2023-08-17T06:35:33.975Z,99632.00
2023-08-17T06:37:07.689Z,99620.00
2023-08-17T06:38:40.908Z,99624.00
2023-08-17T06:40:13.169Z,99616.00
2023-08-17T06:41:46.435Z,99623.00
2023-08-17T06:43:20.323Z,99629.00
2023-08-17T06:44:53.554Z,99628.00
2023-08-17T06:46:29.037Z,99621.00
2023-08-17T06:48:01.410Z,99622.00
2023-08-17T06:49:34.641Z,99618.00
2023-08-17T06:51:07.912Z,99624.00
2023-08-17T06:52:41.743Z,99618.00
2023-08-17T06:54:14.970Z,99626.00
2023-08-17T06:55:48.937Z,99632.00
2023-08-17T06:57:22.750Z,99623.00
2023-08-17T06:58:55.959Z,99615.00
2023-08-17T07:00:28.284Z,99622.00
2023-08-17T07:02:02.575Z,99622.00
2023-08-17T07:03:36.062Z,99629.00
2023-08-17T07:05:09.323Z,99631.00
2023-08-17T07:06:44.546Z,99639.00
2023-08-17T07:08:18.306Z,99633.00
2023-08-17T07:09:51.603Z,99639.00
2023-08-17T07:11:24.142Z,99641.00
2023-08-17T07:12:57.339Z,99630.00
2023-08-17T07:14:29.534Z,99640.00
2023-08-17T07:16:02.828Z,99643.00
2023-08-17T07:17:37.462Z,99646.00
2023-08-17T07:19:11.316Z,99645.00
2023-08-17T07:20:44.484Z,99645.00
2023-08-17T07:22:17.510Z,99643.00
2023-08-17T07:23:53.381Z,99644.00
2023-08-17T07:25:26.090Z,99644.00
2023-08-17T07:26:59.390Z,99646.00
2023-08-17T07:28:31.789Z,99648.00
2023-08-17T07:30:05.960Z,99645.00
2023-08-17T07:31:38.888Z,99654.00
2023-08-17T07:33:12.253Z,99649.00
2023-08-17T07:34:44.427Z,99646.00
2023-08-17T07:36:17.710Z,99647.00
2023-08-17T07:38:03.643Z,99650.00
2023-08-17T07:39:57.615Z,99650.00
2023-08-17T07:41:29.885Z,99649.00
2023-08-17T07:43:03.707Z,99648.00
2023-08-17T07:44:36.073Z,99651.00
2023-08-17T07:46:09.607Z,99655.00
2023-08-17T07:47:42.050Z,99659.00
2023-08-17T07:49:26.455Z,99653.00
2023-08-17T07:51:05.218Z,99659.00
2023-08-17T07:52:37.685Z,99662.00
2023-08-17T07:54:10.965Z,99664.00
2023-08-17T07:55:45.487Z,99660.00
2023-08-17T07:57:17.821Z,99655.00
2023-08-17T07:58:51.271Z,99661.00
2023-08-17T08:00:23.567Z,99668.00
2023-08-17T08:01:57.021Z,99673.00
2023-08-17T08:03:29.343Z,99666.00
2023-08-17T08:05:02.628Z,99663.00
2023-08-17T08:06:34.931Z,99653.00
2023-08-17T08:08:08.274Z,99656.00
2023-08-17T08:09:40.549Z,99660.00
2023-08-17T08:11:15.128Z,99666.00
2023-08-17T08:12:48.252Z,99670.00
2023-08-17T08:14:21.486Z,99679.00
2023-08-17T08:15:53.750Z,99673.00
2023-08-17T08:17:28.349Z,99674.00
2023-08-17T08:19:00.846Z,99670.00
2023-08-17T08:20:34.248Z,99672.00
2023-08-17T08:22:06.515Z,99674.00
2023-08-17T08:23:39.699Z,99672.00
2023-08-17T08:25:12.944Z,99679.00
2023-08-17T08:26:46.537Z,99677.00
2023-08-17T08:28:19.834Z,99678.00
2023-08-17T08:29:52.086Z,99680.00
2023-08-17T08:31:28.031Z,99673.00
2023-08-17T08:33:01.045Z,99668.00
2023-08-17T08:34:34.447Z,99680.00
2023-08-17T08:36:08.041Z,99673.00
2023-08-17T08:37:42.726Z,99674.00
2023-08-17T08:39:16.174Z,99668.00
2023-08-17T08:40:50.079Z,99672.00
2023-08-17T08:42:26.489Z,99676.00
2023-08-17T08:43:59.837Z,99673.00
2023-08-17T08:45:32.739Z,99669.00
2023-08-17T08:47:06.689Z,99662.00
2023-08-17T08:48:43.693Z,99664.00
2023-08-17T08:50:23.453Z,99673.00
2023-08-17T08:52:00.478Z,99668.00
2023-08-17T08:53:40.927Z,99675.00
2023-08-17T08:55:19.341Z,99674.00
2023-08-17T08:57:01.305Z,99672.00
2023-08-17T08:58:37.371Z,99672.00
2023-08-17T09:00:14.963Z,99673.00
2023-08-17T09:01:51.836Z,99659.00
2023-08-17T09:03:26.402Z,99665.00
2023-08-17T09:05:02.362Z,99668.00
2023-08-17T09:06:35.897Z,99666.00
2023-08-17T09:08:17.513Z,99668.00
2023-08-17T09:09:54.861Z,99665.00
2023-08-17T09:11:27.183Z,99662.00
2023-08-17T09:13:04.525Z,99660.00
2023-08-17T09:14:38.582Z,99657.00
2023-08-17T09:16:12.300Z,99649.00
2023-08-17T09:17:48.739Z,99656.00
2023-08-17T09:19:22.624Z,99649.00
2023-08-17T09:20:55.950Z,99653.00
2023-08-17T09:22:41.494Z,99650.00
2023-08-17T09:24:13.965Z,99648.00
2023-08-17T09:25:48.937Z,99647.00
2023-08-17T09:27:23.785Z,99658.00
2023-08-17T09:28:57.827Z,99648.00
2023-08-17T09:30:31.436Z,99654.00
2023-08-17T09:32:07.679Z,99656.00
2023-08-17T09:33:45.504Z,99653.00
2023-08-17T09:35:19.985Z,99663.00
2023-08-17T09:36:53.988Z,99669.00
2023-08-17T09:38:28.446Z,99673.00
2023-08-17T09:40:01.975Z,99668.00
2023-08-17T09:41:43.901Z,99680.00
2023-08-17T09:43:18.623Z,99678.00
2023-08-17T09:44:52.411Z,99673.00
2023-08-17T09:46:27.477Z,99671.00
2023-08-17T09:48:03.518Z,99671.00
2023-08-17T09:49:36.845Z,99658.00
2023-08-17T09:51:10.350Z,99657.00
2023-08-17T09:52:44.907Z,99659.00
2023-08-17T09:54:24.357Z,99667.00
2023-08-17T09:56:00.034Z,99655.00
2023-08-17T09:57:34.605Z,99667.00
2023-08-17T09:59:06.854Z,99659.00
2023-08-17T10:00:50.530Z,99661.00
2023-08-17T10:02:32.150Z,99657.00
2023-08-17T10:04:06.261Z,99658.00
2023-08-17T10:05:44.178Z,99657.00
2023-08-17T10:07:19.629Z,99656.00
2023-08-17T10:08:58.693Z,99655.00
2023-08-17T10:10:36.477Z,99653.00
2023-08-17T10:12:17.332Z,99659.00
2023-08-17T10:13:53.332Z,99660.00
2023-08-17T10:15:32.028Z,99655.00
2023-08-17T10:17:13.969Z,99656.00
2023-08-17T10:18:56.398Z,99657.00
2023-08-17T10:20:36.031Z,99657.00
2023-08-17T10:22:21.919Z,99667.00
2023-08-17T10:23:56.978Z,99658.00
2023-08-17T10:25:30.497Z,99659.00
2023-08-17T10:27:05.302Z,99665.00
2023-08-17T10:28:40.385Z,99668.00
2023-08-17T10:30:13.460Z,99666.00
2023-08-17T10:31:47.547Z,99661.00
2023-08-17T10:33:20.829Z,99658.00
2023-08-17T10:34:56.169Z,99650.00
2023-08-17T10:36:29.508Z,99652.00
2023-08-17T10:38:10.500Z,99653.00
2023-08-17T10:39:48.510Z,99654.00
2023-08-17T10:41:24.577Z,99651.00
2023-08-17T10:42:57.120Z,99656.00
2023-08-17T10:44:46.479Z,99662.00
2023-08-17T10:46:21.474Z,99644.00
2023-08-17T10:48:17.456Z,99648.00
2023-08-17T10:49:51.331Z,99652.00
2023-08-17T10:51:28.874Z,99658.00
2023-08-17T10:53:09.740Z,99648.00
2023-08-17T10:54:44.956Z,99653.00
2023-08-17T10:56:18.269Z,99665.00
2023-08-17T10:57:54.105Z,99662.00
2023-08-17T10:59:29.464Z,99664.00
2023-08-17T11:01:03.212Z,99657.00
2023-08-17T11:02:36.517Z,99660.00
2023-08-17T11:04:19.450Z,99661.00
2023-08-17T11:05:54.701Z,99656.00
2023-08-17T11:07:42.316Z,99662.00
2023-08-17T11:09:19.807Z,99655.00
2023-08-17T11:11:03.033Z,99654.00
2023-08-17T11:12:38.742Z,99649.00
2023-08-17T11:14:12.079Z,99647.00
2023-08-17T11:15:49.275Z,99653.00
2023-08-17T11:17:23.182Z,99647.00
2023-08-17T11:19:00.541Z,99646.00
2023-08-17T11:20:34.447Z,99651.00
2023-08-17T11:22:08.374Z,99650.00
2023-08-17T11:23:42.426Z,99652.00
2023-08-17T11:25:16.980Z,99654.00
2023-08-17T11:26:53.304Z,99648.00
2023-08-17T11:28:34.411Z,99654.00
2023-08-17T11:30:09.521Z,99654.00
2023-08-17T11:31:43.943Z,99661.00
2023-08-17T11:33:16.268Z,99652.00
2023-08-17T11:35:08.725Z,99649.00
2023-08-17T11:36:43.279Z,99654.00
2023-08-17T11:38:15.674Z,99649.00
2023-08-17T11:40:13.773Z,99649.00
2023-08-17T11:41:47.339Z,99653.00
2023-08-17T11:43:23.437Z,99650.00
2023-08-17T11:44:57.678Z,99645.00
2023-08-17T11:46:31.110Z,99647.00
2023-08-17T11:48:04.882Z,99646.00
2023-08-17T11:49:38.919Z,99647.00
2023-08-17T11:51:14.902Z,99656.00
2023-08-17T11:52:54.543Z,99646.00
2023-08-17T11:54:27.833Z,99648.00
2023-08-17T11:56:04.711Z,99651.00
2023-08-17T11:57:40.340Z,99652.00
2023-08-17T11:59:19.373Z,99648.00
2023-08-17T12:00:51.824Z,99656.00
2023-08-17T12:02:29.888Z,99649.00
2023-08-17T12:04:06.436Z,99647.00
2023-08-17T12:05:39.732Z,99641.00
2023-08-17T12:07:12.665Z,99650.00
2023-08-17T12:08:49.984Z,99647.00
2023-08-17T12:10:26.241Z,99650.00
2023-08-17T12:12:03.036Z,99644.00
2023-08-17T12:13:37.137Z,99645.00
2023-08-17T12:15:12.842Z,99648.00
2023-08-17T12:16:50.267Z,99639.00
2023-08-17T12:18:23.170Z,99643.00
2023-08-17T12:19:57.764Z,99646.00
2023-08-17T12:21:31.009Z,99645.00
2023-08-17T12:23:04.795Z,99646.00
2023-08-17T12:24:39.507Z,99642.00
2023-08-17T12:26:18.790Z,99647.00
2023-08-17T12:27:53.589Z,99646.00
2023-08-17T12:29:25.943Z,99651.00
2023-08-17T12:31:01.877Z,99651.00
2023-08-17T12:32:35.313Z,99647.00
2023-08-17T12:34:07.746Z,99647.00
2023-08-17T12:35:41.010Z,99649.00
2023-08-17T12:37:21.217Z,99647.00
2023-08-17T12:38:54.684Z,99647.00
2023-08-17T12:40:29.482Z,99647.00
2023-08-17T12:42:02.759Z,99641.00
2023-08-17T12:43:39.809Z,99651.00
2023-08-17T12:45:13.147Z,99652.00
2023-08-17T12:46:46.485Z,99649.00
2023-08-17T12:48:18.824Z,99647.00
2023-08-17T12:49:52.090Z,99641.00
2023-08-17T12:51:25.408Z,99638.00
2023-08-17T12:52:57.790Z,99636.00
2023-08-17T12:54:31.074Z,99644.00
2023-08-17T12:56:04.574Z,99632.00
2023-08-17T12:57:36.844Z,99635.00
2023-08-17T12:59:11.403Z,99631.00
2023-08-17T13:00:44.514Z,99631.00
2023-08-17T13:02:17.844Z,99630.00
2023-08-17T13:03:50.523Z,99641.00
2023-08-17T13:05:26.967Z,99636.00
2023-08-17T13:07:01.713Z,99628.00
2023-08-17T13:08:35.165Z,99643.00
2023-08-17T13:10:09.570Z,99630.00
2023-08-17T13:11:41.794Z,99622.00
2023-08-17T13:13:15.203Z,99627.00
2023-08-17T13:14:48.808Z,99624.00
2023-08-17T13:16:24.913Z,99626.00
2023-08-17T13:17:58.234Z,99638.00
2023-08-17T13:19:31.461Z,99639.00
2023-08-17T13:21:04.092Z,99642.00
2023-08-17T13:22:37.306Z,99635.00
2023-08-17T13:24:09.939Z,99639.00
2023-08-17T13:25:43.611Z,99643.00
2023-08-17T13:27:15.925Z,99647.00
2023-08-17T13:28:49.181Z,99651.00
2023-08-17T13:30:22.801Z,99648.00
2023-08-17T13:31:59.178Z,99646.00
2023-08-17T13:33:31.733Z,99646.00
2023-08-17T13:35:06.123Z,99641.00
2023-08-17T13:36:38.358Z,99648.00
2023-08-17T13:38:11.736Z,99650.00
2023-08-17T13:39:48.190Z,99649.00
2023-08-17T13:41:25.917Z,99644.00
2023-08-17T13:43:00.456Z,99650.00
2023-08-17T13:44:42.283Z,99641.00
2023-08-17T13:46:19.613Z,99648.00
2023-08-17T13:48:48.803Z,99644.00
2023-08-17T13:50:24.815Z,99644.00
2023-08-17T13:51:58.400Z,99642.00
2023-08-17T13:53:49.486Z,99641.00
2023-08-17T13:55:38.077Z,99644.00
2023-08-17T13:57:11.308Z,99651.00
2023-08-17T13:58:44.478Z,99641.00
2023-08-17T14:00:19.395Z,99646.00
2023-08-17T14:01:56.897Z,99643.00
2023-08-17T14:03:29.396Z,99640.00
2023-08-17T14:05:11.843Z,99639.00
2023-08-17T14:06:45.210Z,99634.00
2023-08-17T14:08:19.727Z,99630.00
2023-08-17T14:10:06.589Z,99640.00
2023-08-17T14:11:41.414Z,99629.00
2023-08-17T14:13:13.686Z,99635.00
2023-08-17T14:14:49.896Z,99629.00
2023-08-17T14:16:22.292Z,99631.00
2023-08-17T14:17:56.983Z,99630.00
2023-08-17T14:19:29.374Z,99628.00
2023-08-17T14:21:02.560Z,99625.00
2023-08-17T14:22:34.878Z,99631.00
2023-08-17T14:24:09.200Z,99626.00
2023-08-17T14:25:41.484Z,99626.00
2023-08-17T14:27:14.648Z,99635.00
2023-08-17T14:28:46.953Z,99628.00
2023-08-17T14:30:20.103Z,99631.00
2023-08-17T14:31:56.093Z,99624.00
2023-08-17T14:33:30.851Z,99621.00
2023-08-17T14:35:03.069Z,99629.00
2023-08-17T14:36:36.304Z,99625.00
2023-08-17T14:38:14.074Z,99619.00
2023-08-17T14:39:47.640Z,99625.00
2023-08-17T14:41:23.576Z,99622.00
2023-08-17T14:42:56.861Z,99617.00
2023-08-17T14:44:29.106Z,99621.00
2023-08-17T14:46:02.636Z,99615.00
2023-08-17T14:47:34.931Z,99618.00
2023-08-17T14:49:09.522Z,99615.00
2023-08-17T14:50:42.816Z,99609.00
2023-08-17T14:52:15.071Z,99617.00
2023-08-17T14:53:50.856Z,99610.00
2023-08-17T14:55:23.204Z,99610.00
2023-08-17T14:56:57.880Z,99602.00
2023-08-17T14:58:45.421Z,99607.00
2023-08-17T15:00:18.245Z,99606.00
2023-08-17T15:01:56.855Z,99602.00
2023-08-17T15:03:32.790Z,99601.00
2023-08-17T15:05:08.031Z,99596.00
2023-08-17T15:06:43.915Z,99595.00
2023-08-17T15:08:17.634Z,99587.00
2023-08-17T15:09:50.086Z,99593.00
2023-08-17T15:11:23.342Z,99585.00
2023-08-17T15:12:55.930Z,99590.00
2023-08-17T15:14:31.724Z,99578.00
2023-08-17T15:16:06.196Z,99576.00
2023-08-17T15:17:39.469Z,99568.00
2023-08-17T15:19:11.728Z,99567.00
2023-08-17T15:20:46.408Z,99572.00
2023-08-17T15:22:18.880Z,99577.00
2023-08-17T15:23:52.137Z,99567.00
2023-08-17T15:25:25.332Z,99567.00
2023-08-17T15:26:57.560Z,99568.00
2023-08-17T15:28:32.857Z,99574.00
2023-08-17T15:30:06.814Z,99571.00
2023-08-17T15:31:40.163Z,99565.00
2023-08-17T15:33:15.553Z,99560.00
2023-08-17T15:35:04.375Z,99555.00
2023-08-17T15:36:39.022Z,99556.00
2023-08-17T15:38:15.104Z,99551.00
2023-08-17T15:39:47.434Z,99553.00
2023-08-17T15:41:22.824Z,99560.00
2023-08-17T15:42:55.057Z,99554.00
2023-08-17T15:44:28.359Z,99563.00
2023-08-17T15:46:00.830Z,99561.00
2023-08-17T15:47:34.778Z,99554.00
2023-08-17T15:49:07.051Z,99548.00
2023-08-17T15:50:40.329Z,99551.00
2023-08-17T15:52:16.229Z,99544.00
2023-08-17T15:53:48.547Z,99538.00
2023-08-17T15:55:21.765Z,99544.00
2023-08-17T15:56:54.021Z,99546.00
2023-08-17T15:58:27.569Z,99553.00
2023-08-17T15:59:59.828Z,99554.00
2023-08-17T16:01:33.443Z,99546.00
2023-08-17T16:03:06.506Z,99551.00
2023-08-17T16:04:39.685Z,99549.00
2023-08-17T16:06:12.042Z,99554.00
2023-08-17T16:07:46.493Z,99560.00
2023-08-17T16:09:19.740Z,99562.00
2023-08-17T16:10:52.496Z,99554.00
2023-08-17T16:12:25.791Z,99552.00
2023-08-17T16:13:57.973Z,99548.00
2023-08-17T16:15:31.300Z,99546.00
2023-08-17T16:17:03.735Z,99549.00
2023-08-17T16:18:36.985Z,99542.00
2023-08-17T16:20:12.303Z,99540.00
2023-08-17T16:21:44.766Z,99536.00
2023-08-17T16:23:22.412Z,99529.00
2023-08-17T16:24:55.259Z,99525.00
2023-08-17T16:28:08.894Z,99515.00
2023-08-17T16:29:42.355Z,99517.00
2023-08-17T16:31:15.575Z,99515.00
2023-08-17T16:32:48.820Z,99512.00
2023-08-17T16:34:21.162Z,99514.00
2023-08-17T16:35:54.449Z,99510.00
2023-08-17T16:37:27.031Z,99519.00
2023-08-17T16:39:01.970Z,99512.00
2023-08-17T16:40:38.691Z,99509.00
2023-08-17T16:42:12.404Z,99510.00
2023-08-17T16:43:45.009Z,99511.00
2023-08-17T16:45:19.459Z,99518.00
2023-08-17T16:46:51.693Z,99513.00
2023-08-17T16:48:25.296Z,99522.00
2023-08-17T16:49:58.215Z,99521.00
2023-08-17T16:51:35.909Z,99522.00
2023-08-17T16:53:09.963Z,99515.00
2023-08-17T16:54:47.468Z,99525.00
2023-08-17T16:56:21.293Z,99537.00
2023-08-17T16:57:57.790Z,99523.00
2023-08-17T16:59:31.330Z,99531.00
2023-08-17T17:01:05.766Z,99532.00
2023-08-17T17:02:40.794Z,99525.00
2023-08-17T17:04:13.095Z,99530.00
2023-08-17T17:05:46.370Z,99533.00
2023-08-17T17:07:18.669Z,99535.00
2023-08-17T17:08:51.855Z,99535.00
2023-08-17T17:10:25.542Z,99536.00
2023-08-17T17:11:58.744Z,99533.00
2023-08-17T17:13:31.709Z,99535.00
2023-08-17T17:15:06.352Z,99531.00
2023-08-17T17:16:38.726Z,99532.00
2023-08-17T17:18:12.076Z,99538.00
2023-08-17T17:19:44.262Z,99535.00
2023-08-17T17:21:17.442Z,99532.00
2023-08-17T17:22:49.688Z,99534.00
2023-08-17T17:24:22.841Z,99530.00
2023-08-17T17:25:58.323Z,99542.00
2023-08-17T17:27:31.556Z,99535.00
2023-08-17T17:29:03.969Z,99545.00
2023-08-17T17:30:37.250Z,99534.00
2023-08-17T17:32:09.551Z,99534.00
2023-08-17T17:33:42.749Z,99536.00
2023-08-17T17:35:14.998Z,99537.00
2023-08-17T17:36:50.273Z,99545.00
2023-08-17T17:38:22.540Z,99545.00
2023-08-17T17:39:55.725Z,99532.00
2023-08-17T17:41:30.191Z,99546.00
2023-08-17T17:43:02.484Z,99549.00
2023-08-17T17:44:35.667Z,99552.00
2023-08-17T17:46:07.927Z,99563.00
2023-08-17T17:47:41.072Z,99562.00
2023-08-17T17:49:13.262Z,99549.00
2023-08-17T17:50:46.533Z,99557.00
2023-08-17T17:52:19.278Z,99568.00
2023-08-17T17:53:52.733Z,99556.00
2023-08-17T17:55:25.028Z,99568.00
2023-08-17T17:57:00.575Z,99578.00
2023-08-17T17:58:33.220Z,99582.00
2023-08-17T18:00:08.328Z,99572.00
2023-08-17T18:01:46.188Z,99572.00
2023-08-17T18:03:18.463Z,99575.00
2023-08-17T18:04:52.608Z,99577.00
2023-08-17T18:06:24.813Z,99574.00
2023-08-17T18:07:58.040Z,99571.00
2023-08-17T18:09:31.758Z,99572.00
2023-08-17T18:11:04.088Z,99570.00
2023-08-17T18:12:38.719Z,99579.00
2023-08-17T18:14:10.963Z,99582.00
2023-08-17T18:15:44.136Z,99578.00
2023-08-17T18:17:16.486Z,99573.00
2023-08-17T18:18:49.628Z,99577.00
2023-08-17T18:20:21.908Z,99571.00
2023-08-17T18:21:55.080Z,99572.00
2023-08-17T18:23:27.338Z,99571.00
2023-08-17T18:25:00.639Z,99566.00
2023-08-17T18:26:32.935Z,99567.00
2023-08-17T18:28:08.599Z,99574.00
2023-08-17T18:29:41.054Z,99574.00
2023-08-17T18:31:14.312Z,99576.00
2023-08-17T18:32:46.572Z,99570.00